Time;durP1;ratioP1;P1;durP2;ratioP2;P2;SDS_P1;SDS_P2;PMS_P1;PMS_P2;Temp;Humidity;BMP_temperature;BMP_pressure;BME280_temperature;BME280_humidity;BME280_pressure;Samples;Min_cycle;Max_cycle;Signal;HPM_P1;HPM_P2
2022/10/28 00:03:08;;;;;;;1.80;1.70;;;16.20;63.40;;;15.31;61.61;101872.09;12146766;19;20032;-85
2022/10/28 00:07:09;;;;;;;1.85;1.75;;;16.20;62.80;;;15.27;61.58;101874.06;12143779;19;20026;-85
2022/10/28 00:11:16;;;;;;;2.00;1.80;;;16.20;62.60;;;15.31;61.52;101878.25;12145299;19;20375;-85
2022/10/28 00:15:17;;;;;;;2.28;1.80;;;16.10;62.40;;;15.27;61.76;101876.69;12146834;19;20022;-85
2022/10/28 00:19:19;;;;;;;2.00;1.73;;;16.10;62.70;;;15.21;61.68;101866.53;12145870;19;20770;-85
2022/10/28 00:23:20;;;;;;;2.03;1.88;;;16.10;62.90;;;15.13;61.56;101851.16;12145929;19;20022;-85
2022/10/28 00:27:22;;;;;;;2.88;2.15;;;16.10;62.90;;;15.26;61.72;101870.59;12143927;19;20359;-85
2022/10/28 00:31:27;;;;;;;3.70;1.65;;;16.10;63.30;;;15.21;61.70;101869.16;12143471;19;20274;-85
2022/10/28 00:35:28;;;;;;;4.30;1.80;;;16.10;63.40;;;15.20;61.77;101867.44;12146854;19;20291;-84
2022/10/28 00:39:30;;;;;;;1.95;1.73;;;15.90;63.10;;;15.25;61.85;101873.31;12145958;19;20035;-85
2022/10/28 00:43:35;;;;;;;3.17;1.98;;;16.10;63.50;;;14.97;61.56;101829.28;12145133;19;20022;-85
2022/10/28 00:48:00;;;;;;;2.75;2.08;;;16.10;63.30;;;15.19;61.66;101858.72;12141619;19;20042;-86
2022/10/28 00:52:07;;;;;;;2.05;1.83;;;16.10;63.50;;;15.07;61.70;101834.88;12144114;19;20407;-85
2022/10/28 00:56:11;;;;;;;1.75;1.50;;;16.20;63.40;;;15.23;61.80;101860.25;12143972;19;20014;-85
2022/10/28 01:00:14;;;;;;;2.83;2.40;;;16.20;63.30;;;15.18;61.73;101849.13;12137996;19;20515;-85
2022/10/28 01:04:15;;;;;;;2.05;1.83;;;16.20;63.40;;;15.22;61.97;101847.16;12146808;19;21025;-85
2022/10/28 01:08:18;;;;;;;2.63;2.40;;;16.20;63.40;;;15.22;61.94;101842.75;12151133;19;20371;-85
2022/10/28 01:12:49;;;;;;;3.15;1.73;;;16.20;63.50;;;15.20;61.89;101843.75;12151722;19;20022;-85
2022/10/28 01:17:00;;;;;;;3.28;1.42;;;16.10;63.30;;;15.22;61.93;101852.44;12152114;19;20587;-85
2022/10/28 01:21:17;;;;;;;4.00;1.85;;;16.20;63.40;;;15.19;61.94;101842.91;12152245;19;20135;-85
2022/10/28 01:26:17;;;;;;;2.50;1.95;;;16.10;63.60;;;15.19;61.78;101852.59;12157454;19;20117;-85
2022/10/28 01:30:22;;;;;;;1.50;1.40;;;16.00;63.60;;;15.15;61.81;101835.28;12156141;19;20026;-85
2022/10/28 01:34:50;;;;;;;;;;;16.10;63.40;;;15.15;61.81;101843.16;12158959;19;20035;-85
2022/10/28 01:39:33;;;;;;;5.65;1.70;;;16.10;63.20;;;15.09;62.00;101825.09;12151845;19;19914;-86
2022/10/28 01:43:53;;;;;;;4.38;1.52;;;16.10;63.40;;;15.18;62.10;101838.59;12157254;19;20029;-85
2022/10/28 01:48:20;;;;;;;1.77;1.55;;;16.10;63.80;;;15.15;61.99;101833.53;12151401;19;20023;-85
2022/10/28 01:52:26;;;;;;;1.83;1.73;;;16.10;63.80;;;15.20;62.01;101839.38;12152463;19;20021;-85
2022/10/28 01:56:35;;;;;;;3.70;1.75;;;16.10;63.80;;;15.13;62.06;101811.69;12149007;19;20381;-85
2022/10/28 02:00:37;;;;;;;1.88;1.60;;;16.10;64.00;;;15.14;61.90;101812.53;12155405;19;20022;-85
2022/10/28 02:04:38;;;;;;;2.03;1.85;;;16.10;63.90;;;15.09;62.07;101804.06;12152790;19;20026;-85
2022/10/28 02:09:09;;;;;;;2.17;1.75;;;16.10;63.90;;;15.17;62.29;101822.88;12150626;19;20019;-85
2022/10/28 02:13:15;;;;;;;2.65;1.63;;;16.20;63.90;;;15.18;62.12;101814.91;12151606;19;20436;-85
2022/10/28 02:17:38;;;;;;;12.95;2.13;;;16.20;63.80;;;15.22;62.02;101816.44;12149570;19;20450;-85
2022/10/28 02:22:06;;;;;;;2.28;2.08;;;16.10;63.80;;;15.22;61.96;101812.94;12152103;19;20429;-85
2022/10/28 02:26:39;;;;;;;6.10;1.92;;;16.10;63.90;;;15.21;62.10;101796.31;12150577;19;21153;-85
2022/10/28 02:30:56;;;;;;;2.38;1.90;;;16.10;63.90;;;15.06;62.08;101773.50;12150338;19;20025;-85
2022/10/28 02:35:02;;;;;;;2.15;1.92;;;16.10;63.70;;;15.16;62.24;101784.38;12152956;19;20915;-85
2022/10/28 02:39:06;;;;;;;2.13;1.80;;;16.10;63.80;;;15.19;62.15;101805.25;12150096;19;20854;-85
2022/10/28 02:43:12;;;;;;;3.92;2.05;;;16.10;63.90;;;15.17;62.17;101799.22;12150189;19;20034;-85
2022/10/28 02:47:19;;;;;;;2.63;2.42;;;16.10;63.80;;;15.18;62.17;101799.13;12148801;19;20025;-85
2022/10/28 02:51:28;;;;;;;3.40;2.72;;;16.10;63.80;;;15.11;62.35;101789.03;12150929;19;20035;-85
2022/10/28 02:55:38;;;;;;;3.17;2.03;;;16.10;64.30;;;15.12;62.41;101791.59;12150891;19;20042;-85
2022/10/28 02:59:40;;;;;;;2.30;1.95;;;16.10;64.10;;;15.19;62.46;101800.81;12148466;19;20035;-85
2022/10/28 03:03:42;;;;;;;2.83;2.33;;;16.10;64.00;;;15.16;62.26;101798.38;12149009;19;20299;-85
2022/10/28 03:07:44;;;;;;;2.45;2.20;;;16.10;64.10;;;15.21;62.46;101798.13;12145862;19;20011;-84
2022/10/28 03:11:45;;;;;;;2.80;2.50;;;15.90;63.80;;;15.17;62.28;101780.78;12147614;19;20037;-85
2022/10/28 03:15:47;;;;;;;2.28;2.08;;;16.20;64.00;;;15.15;62.28;101777.41;12148171;19;20014;-85
2022/10/28 03:19:48;;;;;;;2.33;1.75;;;16.10;63.90;;;15.18;62.22;101793.03;12150413;19;20014;-84
2022/10/28 03:23:50;;;;;;;2.75;2.30;;;16.20;63.70;;;15.17;62.36;101804.47;12149204;19;20031;-85
2022/10/28 03:27:51;;;;;;;2.42;2.22;;;16.10;63.50;;;15.03;62.42;101777.16;12145871;19;20015;-84
2022/10/28 03:31:53;;;;;;;3.22;2.35;;;16.10;63.40;;;15.08;62.20;101797.97;12145481;19;20303;-84
2022/10/28 03:35:54;;;;;;;4.63;2.15;;;16.10;63.40;;;15.09;62.29;101804.06;12146982;19;20322;-85
2022/10/28 03:39:56;;;;;;;5.72;2.40;;;16.10;63.40;;;15.01;62.24;101791.34;12149775;19;20014;-85
2022/10/28 03:43:58;;;;;;;4.47;2.40;;;16.00;63.20;;;14.94;62.33;101784.75;12151090;19;20280;-85
2022/10/28 03:47:59;;;;;;;3.15;1.90;;;15.90;63.00;;;14.99;62.20;101793.22;12144752;19;20024;-85
2022/10/28 03:52:01;;;;;;;4.95;2.03;;;15.90;62.70;;;14.91;62.10;101796.28;12145690;19;20587;-84
2022/10/28 03:56:02;;;;;;;4.80;2.28;;;15.90;62.70;;;14.88;62.28;101801.72;12144701;19;20046;-85
2022/10/28 04:00:05;;;;;;;4.25;1.85;;;15.90;63.20;;;14.84;62.07;101792.28;12146469;19;20010;-84
2022/10/28 04:04:14;;;;;;;2.33;1.83;;;15.80;62.80;;;14.90;62.18;101809.50;12146110;19;20599;-85
2022/10/28 04:08:17;;;;;;;3.95;2.05;;;15.80;62.80;;;14.82;62.29;101799.41;12146848;19;20014;-85
2022/10/28 04:12:18;;;;;;;3.65;2.17;;;15.70;62.50;;;14.79;62.14;101795.16;12143374;19;20018;-85
2022/10/28 04:16:20;;;;;;;6.45;2.58;;;15.70;62.60;;;14.79;62.35;101796.97;12145531;19;20560;-85
2022/10/28 04:20:22;;;;;;;3.78;1.92;;;15.70;62.60;;;14.71;62.08;101784.22;12143428;19;20026;-85
2022/10/28 04:24:24;;;;;;;2.58;1.98;;;15.50;62.30;;;14.66;62.24;101791.53;12145228;19;20897;-85
2022/10/28 04:28:25;;;;;;;1.92;1.80;;;15.60;62.50;;;14.66;62.18;101796.78;12143619;19;20027;-85
2022/10/28 04:32:30;;;;;;;1.67;1.47;;;15.60;62.30;;;14.59;62.11;101777.03;12140063;19;20015;-85
2022/10/28 04:36:31;;;;;;;3.10;1.63;;;15.50;62.10;;;14.48;62.21;101780.22;12145564;19;20292;-86
2022/10/28 04:40:33;;;;;;;2.05;1.67;;;15.40;62.10;;;14.45;62.22;101785.66;12153034;19;20283;-85
2022/10/28 04:44:34;;;;;;;1.70;1.60;;;15.40;62.20;;;14.45;62.23;101797.97;12159705;19;20106;-85
2022/10/28 04:48:36;;;;;;;2.10;1.60;;;15.20;62.20;;;14.40;62.25;101790.31;12153502;19;20295;-85
2022/10/28 04:52:37;;;;;;;2.08;1.85;;;15.40;62.60;;;14.43;62.11;101792.78;12153031;19;20054;-85
2022/10/28 04:56:39;;;;;;;4.45;1.83;;;15.40;62.60;;;14.41;62.21;101773.59;12154924;19;20022;-85
2022/10/28 05:00:41;;;;;;;2.42;2.08;;;15.30;62.40;;;14.26;62.33;101751.66;12156253;19;21096;-85
2022/10/28 05:04:42;;;;;;;3.20;2.03;;;15.30;62.10;;;14.32;62.18;101766.22;12156216;19;20771;-85
2022/10/28 05:08:43;;;;;;;4.70;2.10;;;15.20;62.10;;;13.97;62.19;101713.81;12151826;19;20014;-85
2022/10/28 05:12:45;;;;;;;2.38;2.17;;;15.20;62.20;;;14.16;62.06;101750.44;12150011;19;20015;-85
2022/10/28 05:16:47;;;;;;;4.03;2.88;;;15.40;62.50;;;14.20;62.08;101759.00;12153251;19;20315;-85
2022/10/28 05:20:53;;;;;;;2.35;1.75;;;15.10;62.30;;;14.18;62.27;101753.84;12152220;19;20308;-84
2022/10/28 05:24:55;;;;;;;2.42;2.20;;;15.10;62.30;;;14.24;62.13;101771.06;12155053;19;20043;-85
2022/10/28 05:28:56;;;;;;;1.98;1.77;;;15.10;62.20;;;14.20;62.19;101777.38;12152542;19;20014;-84
2022/10/28 05:33:00;;;;;;;5.05;2.25;;;15.10;62.30;;;14.15;62.07;101765.38;12150914;19;20018;-84
2022/10/28 05:37:02;;;;;;;3.97;2.03;;;15.10;62.10;;;14.14;62.08;101774.16;12152363;19;20027;-84
2022/10/28 05:41:03;;;;;;;2.33;1.83;;;15.10;62.30;;;14.09;62.07;101784.06;12153296;19;20018;-84
2022/10/28 05:45:05;;;;;;;3.92;1.95;;;15.00;62.20;;;14.07;62.18;101770.19;12154112;19;20839;-85
2022/10/28 05:49:07;;;;;;;2.33;2.08;;;15.00;61.90;;;13.66;62.01;101710.19;12147658;19;20026;-84
2022/10/28 05:53:08;;;;;;;2.67;1.70;;;14.90;61.60;;;13.91;62.08;101772.75;12142277;19;20035;-84
2022/10/28 05:57:10;;;;;;;2.15;1.88;;;14.90;62.00;;;13.83;62.08;101751.31;12147432;19;20018;-84
2022/10/28 06:01:11;;;;;;;1.83;1.73;;;14.80;62.00;;;13.85;62.14;101754.72;12153932;19;20056;-84
2022/10/28 06:05:13;;;;;;;1.63;1.50;;;14.80;62.00;;;13.73;62.19;101739.59;12153456;19;20047;-84
2022/10/28 06:09:15;;;;;;;2.40;1.45;;;14.80;62.20;;;13.80;62.09;101753.22;12152089;19;20810;-85
2022/10/28 06:13:16;;;;;;;4.97;1.27;;;14.80;62.20;;;13.84;62.32;101758.25;12149862;19;20018;-84
2022/10/28 06:17:18;;;;;;;2.53;1.75;;;14.70;62.30;;;13.79;62.33;101752.38;12152963;19;20015;-84
2022/10/28 06:21:19;;;;;;;2.10;1.85;;;14.70;62.70;;;13.83;62.37;101774.09;12156455;19;20035;-85
2022/10/28 06:25:25;;;;;;;2.35;1.95;;;14.70;62.90;;;13.83;62.32;101763.59;12150263;19;20764;-84
2022/10/28 06:29:27;;;;;;;3.88;1.83;;;14.50;63.20;;;13.86;62.28;101764.28;12150083;19;20022;-84
2022/10/28 06:33:28;;;;;;;2.95;2.13;;;14.80;63.60;;;13.84;62.44;101760.03;12156471;19;20029;-88
2022/10/28 06:37:30;;;;;;;2.85;2.22;;;14.70;63.80;;;13.88;62.55;101766.81;12156393;19;20285;-84
2022/10/28 06:41:32;;;;;;;2.03;1.83;;;14.80;64.10;;;13.90;62.56;101762.31;12155967;19;20894;-84
2022/10/28 06:45:34;;;;;;;2.40;2.20;;;14.90;64.40;;;13.91;62.59;101756.16;12153099;19;20299;-83
2022/10/28 06:49:36;;;;;;;2.30;2.05;;;14.90;64.50;;;13.88;62.66;101751.91;12151086;19;20026;-84
2022/10/28 06:53:37;;;;;;;1.83;1.73;;;14.90;64.50;;;13.91;62.56;101757.00;12150555;19;20018;-84
2022/10/28 06:57:39;;;;;;;1.88;1.77;;;14.90;64.70;;;13.76;62.59;101741.19;12148344;19;20018;-84
2022/10/28 07:01:40;;;;;;;2.67;2.40;;;15.00;65.00;;;13.89;62.62;101756.22;12149983;19;20025;-84
2022/10/28 07:05:42;;;;;;;2.00;1.83;;;14.90;65.00;;;13.98;62.69;101768.03;12153111;19;20033;-85
2022/10/28 07:09:44;;;;;;;3.45;1.83;;;15.00;65.20;;;13.99;62.67;101760.97;12153459;19;21084;-85
2022/10/28 07:13:45;;;;;;;2.35;1.92;;;15.00;65.30;;;14.06;62.87;101780.75;12150198;19;20337;-85
2022/10/28 07:17:56;;;;;;;3.17;1.73;;;15.00;65.40;;;14.02;62.83;101776.59;12152281;19;20039;-86
2022/10/28 07:21:58;;;;;;;3.22;1.90;;;15.00;65.60;;;14.08;62.99;101782.38;12158590;19;20018;-84
2022/10/28 07:26:00;;;;;;;2.35;2.10;;;15.10;65.60;;;14.06;62.92;101778.97;12154817;19;20018;-85
2022/10/28 07:30:01;;;;;;;2.80;2.03;;;15.10;65.80;;;14.12;63.07;101765.53;12150591;19;20025;-85
2022/10/28 07:34:03;;;;;;;3.15;2.00;;;15.10;66.00;;;14.07;62.98;101770.19;12162583;19;20014;-85
2022/10/28 07:38:05;;;;;;;2.22;2.00;;;15.20;66.30;;;14.23;63.00;101782.47;12160139;19;20439;-85
2022/10/28 07:42:06;;;;;;;3.22;2.15;;;15.20;66.50;;;14.31;63.32;101770.66;12165233;19;20411;-83
2022/10/28 07:46:08;;;;;;;2.97;1.90;;;15.30;67.00;;;14.36;63.15;101762.50;12158080;19;20661;-85
2022/10/28 07:50:13;;;;;;;2.40;2.20;;;15.30;67.50;;;14.34;63.30;101749.44;12164904;19;20872;-84
2022/10/28 07:54:14;;;;;;;2.43;2.23;;;15.40;67.70;;;14.26;63.43;101717.50;12133079;19;20054;-84
2022/10/28 07:58:16;;;;;;;3.65;2.40;;;15.50;68.70;;;14.63;63.67;101741.75;12142070;19;20026;-84
2022/10/28 08:02:20;;;;;;;4.53;2.03;;;15.60;69.10;;;14.59;63.49;101722.69;12147858;19;20040;-85
2022/10/28 08:06:22;;;;;;;2.33;2.13;;;15.70;69.30;;;14.85;63.47;101745.81;12156033;19;20324;-85
2022/10/28 08:10:25;;;;;;;2.50;2.30;;;15.80;69.30;;;14.96;63.70;101738.16;12151574;19;20034;-84
2022/10/28 08:14:26;;;;;;;3.33;2.30;;;16.00;69.80;;;15.08;63.77;101729.56;12158804;19;20022;-85
2022/10/28 08:18:28;;;;;;;3.05;2.63;;;16.10;70.40;;;15.21;63.75;101737.59;12158535;19;20090;-84
2022/10/28 08:22:29;;;;;;;3.28;2.42;;;16.20;70.70;;;15.35;64.08;101748.16;12162527;19;20472;-85
2022/10/28 08:26:31;;;;;;;6.20;2.75;;;16.40;70.80;;;15.27;63.93;101718.81;12161733;19;20023;-84
2022/10/28 08:30:33;;;;;;;5.53;3.03;;;16.50;70.90;;;15.58;63.98;101761.72;12163031;19;20367;-84
2022/10/28 08:34:34;;;;;;;3.55;2.60;;;16.60;70.20;;;15.74;63.80;101756.41;12156053;19;20022;-85
2022/10/28 08:38:36;;;;;;;3.55;3.22;;;16.60;70.50;;;15.87;64.08;101766.13;12161559;19;20275;-86
2022/10/28 08:42:48;;;;;;;3.50;2.67;;;16.90;70.80;;;16.01;64.17;101767.06;12163828;19;20856;-86
2022/10/28 08:47:21;;;;;;;5.57;3.13;;;17.00;71.00;;;16.12;64.45;101776.03;12156574;19;20014;-86
2022/10/28 08:51:56;;;;;;;4.28;3.20;;;17.20;70.80;;;16.30;64.04;101770.53;12153741;19;20022;-84
2022/10/28 08:56:14;;;;;;;3.40;2.50;;;17.40;70.80;;;16.43;64.31;101768.81;12161466;19;20284;-87
2022/10/28 09:00:22;;;;;;;4.25;2.33;;;17.60;70.30;;;16.60;64.40;101779.13;12160486;19;20018;-84
2022/10/28 09:04:36;;;;;;;3.53;2.47;;;17.80;70.40;;;16.86;64.35;101770.53;12156694;19;20601;-85
2022/10/28 09:08:43;;;;;;;3.75;2.53;;;17.90;70.70;;;16.95;64.53;101738.25;12163539;19;20030;-88
2022/10/28 09:13:29;;;;;;;8.27;4.55;;;18.20;71.20;;;17.21;64.68;101734.75;12166359;19;20121;-86
2022/10/28 09:17:55;;;;;;;27.45;13.77;;;18.20;69.70;;;17.54;64.55;101735.19;12147046;19;20681;-88
2022/10/28 09:22:09;;;;;;;14.73;9.25;;;18.60;69.70;;;17.73;64.55;101754.13;12158938;19;20019;-88
2022/10/28 09:26:40;;;;;;;9.38;5.25;;;18.80;69.90;;;17.74;64.64;101717.97;12152383;19;20030;-89
2022/10/28 09:31:06;;;;;;;5.38;3.65;;;19.20;69.10;;;18.22;64.51;101766.56;12155409;19;20606;-89
2022/10/28 09:35:20;;;;;;;4.35;2.63;;;19.30;68.20;;;18.41;64.79;101752.03;12157060;19;20798;-88
2022/10/28 09:39:30;;;;;;;3.70;3.03;;;19.60;68.20;;;18.54;64.73;101732.53;12150877;19;20019;-89
2022/10/28 09:43:37;;;;;;;3.28;2.83;;;19.80;67.20;;;18.77;64.78;101749.41;12150100;19;20018;-88
2022/10/28 09:47:43;;;;;;;5.75;3.22;;;20.10;66.80;;;18.78;64.66;101706.09;12147245;19;20405;-89
2022/10/28 09:52:20;;;;;;;2.95;2.53;;;20.10;66.60;;;19.14;64.33;101730.78;12149239;19;20017;-87
2022/10/28 09:56:22;;;;;;;6.53;2.50;;;20.40;65.70;;;19.40;64.48;101733.25;12120936;19;21010;-88
2022/10/28 10:00:24;;;;;;;4.15;2.55;;;20.70;65.90;;;19.59;64.41;101735.34;12137956;19;20029;-88
2022/10/28 10:04:30;;;;;;;3.65;2.47;;;20.70;65.10;;;19.65;64.33;101711.84;12155015;19;20402;-88
2022/10/28 10:08:31;;;;;;;2.42;2.22;;;21.00;64.50;;;19.82;63.99;101725.63;12134610;19;20011;-88
2022/10/28 10:12:33;;;;;;;5.65;2.95;;;21.10;64.60;;;20.01;64.38;101732.97;12109192;19;20695;-88
2022/10/28 10:16:47;;;;;;;3.88;2.75;;;21.30;64.20;;;20.15;64.41;101732.72;12122861;19;20010;-89
2022/10/28 10:20:57;;;;;;;3.53;2.60;;;21.30;64.20;;;20.23;63.71;101711.75;12155475;19;20305;-88
2022/10/28 10:24:59;;;;;;;2.35;2.00;;;21.50;63.70;;;20.42;63.89;101699.66;12155707;19;20411;-88
2022/10/28 10:29:00;;;;;;;2.08;1.85;;;21.70;63.00;;;20.58;63.90;101707.19;12129144;19;20011;-89
2022/10/28 10:33:04;;;;;;;2.38;2.17;;;21.80;62.60;;;20.70;63.35;101699.09;12129223;19;20027;-88
2022/10/28 10:37:19;;;;;;;2.58;1.95;;;21.90;61.80;;;20.80;63.50;101696.53;12139845;19;20049;-88
2022/10/28 10:41:41;;;;;;;;;;;22.00;61.50;;;20.88;63.64;101707.34;12152680;19;20049;-88
2022/10/28 10:46:01;;;;;;;2.00;1.83;;;22.20;62.70;;;21.04;63.12;101704.25;12149661;19;19954;-89
2022/10/28 10:50:24;;;;;;;3.78;2.45;;;22.20;61.30;;;21.20;62.87;101693.19;12120827;19;20611;-89
2022/10/28 10:54:32;;;;;;;3.55;2.40;;;22.40;61.10;;;21.28;63.00;101679.22;12102433;19;21157;-88
2022/10/28 10:58:39;;;;;;;4.40;2.20;;;22.50;61.10;;;21.44;62.75;101687.59;12125850;19;20472;-87
2022/10/28 11:02:46;;;;;;;5.88;2.00;;;22.60;60.00;;;21.48;62.81;101662.44;12135528;19;20019;-88
2022/10/28 11:06:53;;;;;;;5.90;2.50;;;22.70;60.70;;;21.62;62.57;101670.06;12120012;19;20995;-88
2022/10/28 11:11:30;;;;;;;6.95;2.35;;;22.80;59.50;;;21.69;62.35;101656.25;12100419;19;20295;-88
2022/10/28 11:15:32;;;;;;;3.15;2.08;;;22.90;59.90;;;21.78;62.39;101645.63;12098070;19;20395;-88
2022/10/28 11:19:37;;;;;;;2.28;2.08;;;23.00;59.90;;;21.86;62.34;101642.28;12123963;19;20014;-88
2022/10/28 11:23:44;;;;;;;;;;;23.00;59.30;;;21.97;62.26;101657.31;12126251;19;20434;-88
2022/10/28 11:28:18;;;;;;;3.55;1.90;;;23.10;58.80;;;22.03;62.13;101638.13;12112941;19;20252;-88
2022/10/28 11:32:59;;;;;;;3.95;2.33;;;23.20;59.50;;;22.07;62.03;101636.88;12100256;19;20014;-88
2022/10/28 11:37:14;;;;;;;2.33;1.88;;;23.20;59.20;;;22.27;61.73;101638.63;12113012;19;20284;-88
2022/10/28 11:41:28;;;;;;;4.43;2.22;;;23.40;59.20;;;22.36;61.69;101631.63;12135341;19;20290;-88
2022/10/28 11:45:48;;;;;;;3.22;2.25;;;23.40;59.00;;;22.44;61.44;101631.78;12152633;19;20011;-88
2022/10/28 11:50:25;;;;;;;3.95;2.05;;;23.50;59.00;;;22.53;61.23;101627.44;12151726;19;20018;-88
2022/10/28 11:55:09;;;;;;;5.28;2.22;;;23.70;58.40;;;22.60;61.44;101625.03;12148858;19;20026;-91
2022/10/28 12:00:11;;;;;;;3.83;2.08;;;23.70;59.00;;;22.67;61.14;101632.31;12152607;19;20468;-91
2022/10/28 12:04:42;;;;;;;3.40;2.50;;;23.80;58.60;;;22.74;60.91;101616.63;12161591;19;20014;-91
2022/10/28 12:09:27;;;;;;;4.40;2.45;;;23.90;58.40;;;22.93;61.00;101621.09;12156851;19;20010;-91
2022/10/28 12:13:42;;;;;;;5.07;2.70;;;24.00;58.00;;;23.05;60.97;101621.78;12152056;19;20024;-91
2022/10/28 12:18:30;;;;;;;3.10;2.05;;;24.10;58.30;;;22.76;60.62;101564.03;12151988;19;20035;-90
2022/10/28 12:22:45;;;;;;;2.90;1.80;;;24.20;57.80;;;23.11;60.79;101603.38;12157358;19;20477;-91
2022/10/28 12:26:52;;;;;;;2.67;2.13;;;24.30;58.40;;;23.30;60.86;101613.13;12158725;19;20018;-90
2022/10/28 12:30:56;;;;;;;3.65;2.28;;;24.40;57.90;;;23.27;60.54;101594.75;12160476;19;20500;-92
2022/10/28 12:35:04;;;;;;;2.03;1.85;;;24.40;57.60;;;23.44;60.31;101617.16;12158921;19;20405;-90
2022/10/28 12:39:32;;;;;;;3.70;2.08;;;24.50;57.20;;;23.48;60.11;101610.53;12153567;19;20106;-90
2022/10/28 12:43:42;;;;;;;4.47;2.08;;;24.60;57.30;;;23.41;60.12;101580.97;12156033;19;20475;-91
2022/10/28 12:48:12;;;;;;;7.65;3.15;;;24.60;57.00;;;23.56;59.74;101605.31;12156522;19;20296;-91
2022/10/28 12:52:42;;;;;;;4.88;2.38;;;24.60;57.90;;;23.59;60.07;101607.66;12148775;19;20018;-91
2022/10/28 12:57:09;;;;;;;3.42;2.13;;;24.60;57.40;;;23.71;59.49;101602.13;12143400;19;20057;-91
2022/10/28 13:01:16;;;;;;;4.78;1.92;;;24.70;57.40;;;23.72;59.73;101602.03;12149218;19;20022;-90
2022/10/28 13:06:19;;;;;;;2.38;1.75;;;24.80;57.30;;;23.73;59.66;101605.53;12150588;19;20022;-95
2022/10/28 13:10:52;;;;;;;5.15;2.10;;;24.70;57.60;;;23.71;59.38;101583.47;12141016;19;20030;-90
2022/10/28 13:15:20;;;;;;;3.53;2.30;;;24.90;56.90;;;23.78;59.27;101584.59;12152642;19;20039;-90
2022/10/28 13:19:54;;;;;;;4.05;2.72;;;24.80;55.90;;;23.79;59.40;101568.44;12147692;19;20032;-93
2022/10/28 13:24:22;;;;;;;4.82;1.95;;;24.90;57.10;;;23.91;59.22;101585.06;12141605;19;20026;-91
2022/10/28 13:28:32;;;;;;;4.28;2.00;;;24.90;56.60;;;23.85;58.93;101581.16;12144840;19;37563;-91
2022/10/28 13:32:37;;;;;;;4.53;1.73;;;24.90;56.70;;;23.94;59.02;101578.59;12149623;19;20050;-91
2022/10/28 13:36:42;;;;;;;5.00;2.00;;;25.00;56.60;;;23.96;59.09;101573.94;12150856;19;20785;-92
2022/10/28 13:41:04;;;;;;;2.38;1.73;;;25.00;56.60;;;23.99;58.48;101576.31;12152330;19;20007;-90
2022/10/28 13:45:47;;;;;;;4.68;1.88;;;25.00;56.70;;;23.91;58.65;101568.22;12154486;19;20019;-90
2022/10/28 13:50:14;;;;;;;3.72;1.77;;;25.00;56.90;;;23.58;58.67;101501.16;12153603;19;20806;-89
2022/10/28 13:54:27;;;;;;;3.13;2.33;;;24.90;56.20;;;23.95;58.62;101558.91;12145560;19;20508;-92
2022/10/28 13:58:29;;;;;;;2.53;1.90;;;24.90;56.40;;;23.99;58.12;101566.47;12149789;19;20112;-91
2022/10/28 14:02:38;;;;;;;3.83;1.70;;;24.90;56.30;;;23.99;58.10;101566.47;12148979;19;20734;-91
2022/10/28 14:06:40;;;;;;;5.25;1.90;;;25.00;56.70;;;24.03;58.36;101561.66;12149830;19;20026;-91
2022/10/28 14:11:02;;;;;;;3.67;2.83;;;25.00;56.70;;;23.96;58.21;101557.94;12146735;19;20011;-90
2022/10/28 14:15:16;;;;;;;5.00;3.88;;;24.90;56.60;;;23.97;58.20;101547.09;12242626;19;20019;-90
2022/10/28 14:19:21;;;;;;;3.40;2.60;;;24.90;56.80;;;24.01;58.28;101558.31;12251971;19;20361;-91
2022/10/28 14:23:26;;;;;;;3.60;2.45;;;24.90;56.90;;;24.00;58.39;101557.47;12250526;19;20413;-91
2022/10/28 14:27:42;;;;;;;3.72;2.20;;;24.90;56.90;;;23.89;58.07;101540.84;12245945;19;20006;-90
2022/10/28 14:31:44;;;;;;;3.70;2.38;;;24.80;57.00;;;23.93;58.10;101550.25;12251625;19;20018;-91
2022/10/28 14:35:51;;;;;;;3.95;2.47;;;24.80;57.10;;;23.74;57.79;101536.03;12250965;19;20559;-90
2022/10/28 14:40:34;;;;;;;3.28;2.33;;;24.80;57.00;;;23.84;57.93;101547.50;12251066;19;20011;-90
2022/10/28 14:45:05;;;;;;;3.65;2.60;;;24.70;57.10;;;23.87;58.10;101551.66;12250130;19;20014;-90
2022/10/28 14:49:22;;;;;;;6.22;3.28;;;24.70;57.30;;;23.74;58.14;101536.03;12252769;19;20022;-90
2022/10/28 14:53:35;;;;;;;4.60;2.90;;;24.60;57.40;;;23.76;57.92;101544.75;12249548;19;20014;-90
2022/10/28 14:57:36;;;;;;;3.80;2.55;;;24.60;57.40;;;23.77;57.90;101543.75;12248364;19;20444;-89
2022/10/28 15:02:16;;;;;;;3.25;2.58;;;24.60;57.50;;;23.69;58.22;101540.94;12249325;19;20036;-89
2022/10/28 15:06:32;;;;;;;3.10;2.38;;;24.60;57.60;;;23.66;58.09;101546.59;12247502;19;20342;-89
2022/10/28 15:10:33;;;;;;;6.35;3.17;;;24.40;57.60;;;23.60;57.92;101539.16;12251474;19;20007;-89
2022/10/28 15:14:44;;;;;;;4.22;2.80;;;24.40;57.70;;;23.60;58.22;101542.69;12250585;19;20445;-90
2022/10/28 15:18:50;;;;;;;3.38;2.53;;;24.40;57.90;;;23.56;57.75;101543.13;12254407;19;20035;-90
2022/10/28 15:23:09;;;;;;;5.20;2.38;;;24.30;57.80;;;23.24;57.68;101498.28;12252755;19;20089;-89
2022/10/28 15:27:12;;;;;;;3.80;2.50;;;24.30;57.90;;;23.38;57.65;101524.44;12248094;19;20032;-89
2022/10/28 15:31:16;;;;;;;4.72;2.03;;;24.20;57.90;;;23.31;57.77;101524.19;12250149;19;20030;-89
2022/10/28 15:35:38;;;;;;;4.20;2.72;;;24.10;57.90;;;23.18;58.13;101513.88;12251235;19;20015;-89
2022/10/28 15:39:40;;;;;;;4.95;2.50;;;24.00;58.00;;;23.23;57.64;101526.78;12251142;19;20022;-89
2022/10/28 15:43:58;;;;;;;6.13;2.75;;;23.90;57.90;;;22.87;57.83;101478.66;12248697;19;20023;-89
2022/10/28 15:48:09;;;;;;;6.40;3.00;;;23.90;58.10;;;23.10;58.11;101527.09;12248711;19;20017;-89
2022/10/28 15:52:21;;;;;;;8.55;2.35;;;23.80;58.10;;;23.00;58.11;101536.13;12249859;19;20028;-90
2022/10/28 15:56:28;;;;;;;3.20;1.90;;;23.90;58.20;;;22.70;58.06;101488.22;12248393;19;20014;-90
2022/10/28 16:00:35;;;;;;;6.18;2.85;;;23.80;58.20;;;22.84;58.15;101524.22;12248050;19;20046;-89
2022/10/28 16:04:42;;;;;;;6.63;3.03;;;23.70;58.20;;;22.82;57.75;101533.31;12249826;19;20027;-89
2022/10/28 16:08:44;;;;;;;7.78;3.65;;;23.50;58.30;;;22.69;58.15;101520.34;12248887;19;20039;-89
2022/10/28 16:12:46;;;;;;;4.38;3.25;;;23.60;58.30;;;22.58;57.86;101512.53;12245818;19;20089;-89
2022/10/28 16:16:48;;;;;;;7.18;4.40;;;23.40;58.30;;;22.58;57.90;101510.72;12236828;19;20017;-89
2022/10/28 16:20:50;;;;;;;9.65;3.63;;;23.20;58.30;;;22.45;57.87;101503.03;12247193;19;20023;-89
2022/10/28 16:24:53;;;;;;;5.13;4.07;;;23.40;58.40;;;22.52;57.92;101520.13;12245700;19;20014;-89
2022/10/28 16:28:55;;;;;;;4.63;3.63;;;23.30;58.40;;;22.46;57.85;101519.81;12246941;19;20010;-89
2022/10/28 16:32:57;;;;;;;5.93;3.63;;;23.30;58.50;;;22.30;57.61;101501.78;12247542;19;20350;-89
2022/10/28 16:36:58;;;;;;;9.63;3.58;;;23.00;58.40;;;22.31;57.72;101514.13;12253503;19;20018;-88
2022/10/28 16:41:01;;;;;;;4.40;2.97;;;22.90;58.40;;;22.23;57.74;101517.47;12262301;19;20014;-89
2022/10/28 16:45:04;;;;;;;4.95;2.50;;;22.80;58.50;;;22.18;57.99;101526.84;12258726;19;20014;-89
2022/10/28 16:49:06;;;;;;;4.43;3.13;;;22.80;58.50;;;22.02;57.79;101514.94;12261714;19;20014;-89
2022/10/28 16:53:11;;;;;;;5.47;3.22;;;22.70;58.60;;;22.02;58.17;101522.06;12255221;19;20481;-89
2022/10/28 16:57:13;;;;;;;;;;;22.60;58.60;;;21.91;57.96;101525.72;12256616;19;20083;-88
2022/10/28 17:01:19;;;;;;;6.88;3.30;;;22.50;58.80;;;21.63;57.99;101477.69;12259511;19;19919;-89
2022/10/28 17:05:22;;;;;;;7.00;3.72;;;22.40;58.60;;;21.72;57.88;101507.91;12258271;19;20074;-89
2022/10/28 17:09:24;;;;;;;6.47;3.47;;;22.40;58.70;;;21.72;57.90;101520.38;12255879;19;20014;-89
2022/10/28 17:13:26;;;;;;;10.77;4.20;;;22.40;58.80;;;21.54;57.91;101502.44;12255480;19;20052;-89